sensor_id;sensor_type;location;lat;lon;timestamp;temperature;humidity
51021;DHT22;38907;45.562;8.856;2023-07-13T00:01:54;21.20;99.90
51021;DHT22;38907;45.562;8.856;2023-07-13T00:06:56;21.40;99.90
51021;DHT22;38907;45.562;8.856;2023-07-13T00:12:01;21.60;99.90
51021;DHT22;38907;45.562;8.856;2023-07-13T00:17:03;21.40;99.90
51021;DHT22;38907;45.562;8.856;2023-07-13T00:22:05;21.50;99.90
51021;DHT22;38907;45.562;8.856;2023-07-13T00:27:09;21.50;99.90
51021;DHT22;38907;45.562;8.856;2023-07-13T00:32:11;21.40;99.90
51021;DHT22;38907;45.562;8.856;2023-07-13T00:37:13;21.50;99.90
51021;DHT22;38907;45.562;8.856;2023-07-13T00:42:16;21.50;99.90
51021;DHT22;38907;45.562;8.856;2023-07-13T00:47:18;21.40;99.90
51021;DHT22;38907;45.562;8.856;2023-07-13T00:52:20;21.40;99.90
51021;DHT22;38907;45.562;8.856;2023-07-13T00:57:24;21.50;99.90
51021;DHT22;38907;45.562;8.856;2023-07-13T01:02:27;21.40;99.90
51021;DHT22;38907;45.562;8.856;2023-07-13T01:07:30;21.40;99.90
51021;DHT22;38907;45.562;8.856;2023-07-13T01:12:33;21.70;99.90
51021;DHT22;38907;45.562;8.856;2023-07-13T01:17:35;21.80;99.90
51021;DHT22;38907;45.562;8.856;2023-07-13T01:22:38;21.60;99.90
51021;DHT22;38907;45.562;8.856;2023-07-13T01:27:40;21.80;99.90
51021;DHT22;38907;45.562;8.856;2023-07-13T01:32:42;21.50;99.90
51021;DHT22;38907;45.562;8.856;2023-07-13T01:37:45;21.50;99.90
51021;DHT22;38907;45.562;8.856;2023-07-13T01:42:47;21.60;99.90
51021;DHT22;38907;45.562;8.856;2023-07-13T01:47:49;21.50;99.90
51021;DHT22;38907;45.562;8.856;2023-07-13T01:52:53;21.30;99.90
51021;DHT22;38907;45.562;8.856;2023-07-13T01:57:54;21.50;99.90
51021;DHT22;38907;45.562;8.856;2023-07-13T02:02:56;21.50;99.90
51021;DHT22;38907;45.562;8.856;2023-07-13T02:08:00;21.60;99.90
51021;DHT22;38907;45.562;8.856;2023-07-13T02:13:03;21.40;99.90
51021;DHT22;38907;45.562;8.856;2023-07-13T02:18:05;21.50;99.90
51021;DHT22;38907;45.562;8.856;2023-07-13T02:23:08;21.60;99.90
51021;DHT22;38907;45.562;8.856;2023-07-13T02:28:10;21.60;99.90
51021;DHT22;38907;45.562;8.856;2023-07-13T02:33:12;21.50;99.90
51021;DHT22;38907;45.562;8.856;2023-07-13T02:38:15;21.40;99.90
51021;DHT22;38907;45.562;8.856;2023-07-13T02:43:17;21.30;99.90
51021;DHT22;38907;45.562;8.856;2023-07-13T02:48:19;21.20;99.90
51021;DHT22;38907;45.562;8.856;2023-07-13T02:53:22;20.90;99.90
51021;DHT22;38907;45.562;8.856;2023-07-13T02:58:24;20.90;99.90
51021;DHT22;38907;45.562;8.856;2023-07-13T03:03:27;21.00;99.90
51021;DHT22;38907;45.562;8.856;2023-07-13T03:08:30;21.10;99.90
51021;DHT22;38907;45.562;8.856;2023-07-13T03:13:32;21.00;99.90
51021;DHT22;38907;45.562;8.856;2023-07-13T03:18:35;21.00;99.90
51021;DHT22;38907;45.562;8.856;2023-07-13T03:23:38;21.00;99.90
51021;DHT22;38907;45.562;8.856;2023-07-13T03:28:40;21.10;99.90
51021;DHT22;38907;45.562;8.856;2023-07-13T03:33:43;21.10;99.90
51021;DHT22;38907;45.562;8.856;2023-07-13T03:38:46;21.00;99.90
51021;DHT22;38907;45.562;8.856;2023-07-13T03:43:49;20.80;99.90
51021;DHT22;38907;45.562;8.856;2023-07-13T03:48:51;20.60;99.90
51021;DHT22;38907;45.562;8.856;2023-07-13T03:53:54;20.60;99.90
51021;DHT22;38907;45.562;8.856;2023-07-13T03:58:56;20.80;99.90
51021;DHT22;38907;45.562;8.856;2023-07-13T04:03:58;21.00;99.90
51021;DHT22;38907;45.562;8.856;2023-07-13T04:09:03;21.00;99.90
51021;DHT22;38907;45.562;8.856;2023-07-13T04:14:06;21.10;99.90
51021;DHT22;38907;45.562;8.856;2023-07-13T04:19:08;20.60;99.90
51021;DHT22;38907;45.562;8.856;2023-07-13T04:24:12;20.50;99.90
51021;DHT22;38907;45.562;8.856;2023-07-13T04:29:13;20.60;99.90
51021;DHT22;38907;45.562;8.856;2023-07-13T04:34:15;20.70;99.90
51021;DHT22;38907;45.562;8.856;2023-07-13T04:39:19;20.90;99.90
51021;DHT22;38907;45.562;8.856;2023-07-13T04:44:21;21.00;99.90
51021;DHT22;38907;45.562;8.856;2023-07-13T04:49:23;21.10;99.90
51021;DHT22;38907;45.562;8.856;2023-07-13T04:54:26;21.20;99.90
51021;DHT22;38907;45.562;8.856;2023-07-13T04:59:28;21.50;99.90
51021;DHT22;38907;45.562;8.856;2023-07-13T05:04:30;21.60;99.90
51021;DHT22;38907;45.562;8.856;2023-07-13T05:09:33;21.50;99.90
51021;DHT22;38907;45.562;8.856;2023-07-13T05:14:35;21.50;99.90
51021;DHT22;38907;45.562;8.856;2023-07-13T05:19:37;21.60;99.90
51021;DHT22;38907;45.562;8.856;2023-07-13T05:24:40;21.70;99.90
51021;DHT22;38907;45.562;8.856;2023-07-13T05:29:42;21.80;99.90
51021;DHT22;38907;45.562;8.856;2023-07-13T05:34:45;21.60;99.90
51021;DHT22;38907;45.562;8.856;2023-07-13T05:39:48;21.70;99.90
51021;DHT22;38907;45.562;8.856;2023-07-13T05:44:50;21.90;99.90
51021;DHT22;38907;45.562;8.856;2023-07-13T05:49:52;21.80;99.90
51021;DHT22;38907;45.562;8.856;2023-07-13T05:54:55;21.90;99.90
51021;DHT22;38907;45.562;8.856;2023-07-13T05:59:57;22.00;99.90
51021;DHT22;38907;45.562;8.856;2023-07-13T06:04:59;21.90;99.90
51021;DHT22;38907;45.562;8.856;2023-07-13T06:10:02;22.00;99.90
51021;DHT22;38907;45.562;8.856;2023-07-13T06:15:05;22.00;99.90
51021;DHT22;38907;45.562;8.856;2023-07-13T06:20:08;22.00;99.90
51021;DHT22;38907;45.562;8.856;2023-07-13T06:25:11;22.00;99.90
51021;DHT22;38907;45.562;8.856;2023-07-13T06:30:13;22.00;99.90
51021;DHT22;38907;45.562;8.856;2023-07-13T06:35:15;22.00;99.90
51021;DHT22;38907;45.562;8.856;2023-07-13T06:40:18;22.10;99.90
51021;DHT22;38907;45.562;8.856;2023-07-13T06:45:20;22.40;99.90
51021;DHT22;38907;45.562;8.856;2023-07-13T06:50:22;22.60;99.90
51021;DHT22;38907;45.562;8.856;2023-07-13T06:55:26;22.60;99.90
51021;DHT22;38907;45.562;8.856;2023-07-13T07:00:28;22.70;99.90
51021;DHT22;38907;45.562;8.856;2023-07-13T07:05:30;23.00;99.90
51021;DHT22;38907;45.562;8.856;2023-07-13T07:10:33;23.20;99.90
51021;DHT22;38907;45.562;8.856;2023-07-13T07:15:35;23.30;99.90
51021;DHT22;38907;45.562;8.856;2023-07-13T07:20:37;23.40;99.90
51021;DHT22;38907;45.562;8.856;2023-07-13T07:25:43;23.60;99.90
51021;DHT22;38907;45.562;8.856;2023-07-13T07:30:45;23.60;99.90
51021;DHT22;38907;45.562;8.856;2023-07-13T07:35:47;23.80;99.90
51021;DHT22;38907;45.562;8.856;2023-07-13T07:40:50;23.90;99.90
51021;DHT22;38907;45.562;8.856;2023-07-13T07:45:52;24.10;99.90
51021;DHT22;38907;45.562;8.856;2023-07-13T07:50:54;24.30;99.90
51021;DHT22;38907;45.562;8.856;2023-07-13T07:55:57;24.40;99.90
51021;DHT22;38907;45.562;8.856;2023-07-13T08:01:03;24.50;99.90
51021;DHT22;38907;45.562;8.856;2023-07-13T08:06:05;24.60;99.90
51021;DHT22;38907;45.562;8.856;2023-07-13T08:11:09;24.70;99.90
51021;DHT22;38907;45.562;8.856;2023-07-13T08:16:12;24.80;99.90
51021;DHT22;38907;45.562;8.856;2023-07-13T08:21:14;24.80;99.90
51021;DHT22;38907;45.562;8.856;2023-07-13T08:26:17;24.90;99.90
51021;DHT22;38907;45.562;8.856;2023-07-13T08:31:19;25.10;99.90
51021;DHT22;38907;45.562;8.856;2023-07-13T08:36:21;25.10;99.90
51021;DHT22;38907;45.562;8.856;2023-07-13T08:41:24;25.00;99.90
51021;DHT22;38907;45.562;8.856;2023-07-13T08:46:32;25.20;99.90
51021;DHT22;38907;45.562;8.856;2023-07-13T08:51:40;25.30;99.90
51021;DHT22;38907;45.562;8.856;2023-07-13T08:56:46;25.40;99.90
51021;DHT22;38907;45.562;8.856;2023-07-13T09:02:09;25.60;99.90
51021;DHT22;38907;45.562;8.856;2023-07-13T09:07:26;25.70;99.90
51021;DHT22;38907;45.562;8.856;2023-07-13T09:12:43;25.70;99.90
51021;DHT22;38907;45.562;8.856;2023-07-13T09:17:49;25.80;99.90
51021;DHT22;38907;45.562;8.856;2023-07-13T09:22:52;25.90;99.90
51021;DHT22;38907;45.562;8.856;2023-07-13T09:27:58;26.00;99.90
51021;DHT22;38907;45.562;8.856;2023-07-13T09:33:01;26.00;99.90
51021;DHT22;38907;45.562;8.856;2023-07-13T09:38:04;26.00;99.90
51021;DHT22;38907;45.562;8.856;2023-07-13T09:43:15;26.10;99.90
51021;DHT22;38907;45.562;8.856;2023-07-13T09:48:18;26.30;99.90
51021;DHT22;38907;45.562;8.856;2023-07-13T09:53:20;26.40;99.90
51021;DHT22;38907;45.562;8.856;2023-07-13T09:58:26;26.40;99.90
51021;DHT22;38907;45.562;8.856;2023-07-13T10:03:33;26.50;99.90
51021;DHT22;38907;45.562;8.856;2023-07-13T10:08:38;26.60;99.90
51021;DHT22;38907;45.562;8.856;2023-07-13T10:13:42;26.70;99.90
51021;DHT22;38907;45.562;8.856;2023-07-13T10:18:46;26.90;99.90
51021;DHT22;38907;45.562;8.856;2023-07-13T10:23:52;26.90;99.90
51021;DHT22;38907;45.562;8.856;2023-07-13T10:29:01;26.70;99.90
51021;DHT22;38907;45.562;8.856;2023-07-13T10:34:04;26.70;99.90
51021;DHT22;38907;45.562;8.856;2023-07-13T10:39:09;26.90;99.90
51021;DHT22;38907;45.562;8.856;2023-07-13T10:44:20;27.10;99.90
51021;DHT22;38907;45.562;8.856;2023-07-13T10:49:23;27.10;99.90
51021;DHT22;38907;45.562;8.856;2023-07-13T10:54:31;27.10;99.90
51021;DHT22;38907;45.562;8.856;2023-07-13T10:59:35;27.20;99.90
51021;DHT22;38907;45.562;8.856;2023-07-13T11:04:41;27.10;99.90
51021;DHT22;38907;45.562;8.856;2023-07-13T11:09:43;27.20;99.90
51021;DHT22;38907;45.562;8.856;2023-07-13T11:15:05;27.20;99.90
51021;DHT22;38907;45.562;8.856;2023-07-13T11:20:35;27.40;99.90
51021;DHT22;38907;45.562;8.856;2023-07-13T11:25:37;27.50;99.90
51021;DHT22;38907;45.562;8.856;2023-07-13T11:30:43;27.50;99.90
51021;DHT22;38907;45.562;8.856;2023-07-13T11:35:53;27.60;99.90
51021;DHT22;38907;45.562;8.856;2023-07-13T11:41:02;27.90;99.90
51021;DHT22;38907;45.562;8.856;2023-07-13T11:46:18;27.90;99.90
51021;DHT22;38907;45.562;8.856;2023-07-13T11:51:23;28.20;99.90
51021;DHT22;38907;45.562;8.856;2023-07-13T11:56:26;28.30;99.90
51021;DHT22;38907;45.562;8.856;2023-07-13T12:01:31;28.10;99.90
51021;DHT22;38907;45.562;8.856;2023-07-13T12:06:35;27.90;99.90
51021;DHT22;38907;45.562;8.856;2023-07-13T12:11:41;27.50;99.90
51021;DHT22;38907;45.562;8.856;2023-07-13T12:16:45;27.30;99.90
51021;DHT22;38907;45.562;8.856;2023-07-13T12:21:50;27.20;99.90
51021;DHT22;38907;45.562;8.856;2023-07-13T12:26:58;27.00;99.90
51021;DHT22;38907;45.562;8.856;2023-07-13T12:32:09;26.80;99.90
51021;DHT22;38907;45.562;8.856;2023-07-13T12:37:12;26.80;99.90
51021;DHT22;38907;45.562;8.856;2023-07-13T12:42:21;26.70;99.90
51021;DHT22;38907;45.562;8.856;2023-07-13T12:47:28;26.60;99.90
51021;DHT22;38907;45.562;8.856;2023-07-13T12:52:32;26.60;99.90
51021;DHT22;38907;45.562;8.856;2023-07-13T12:57:39;26.60;99.90
51021;DHT22;38907;45.562;8.856;2023-07-13T13:02:43;26.60;99.90
51021;DHT22;38907;45.562;8.856;2023-07-13T13:07:46;26.90;99.90
51021;DHT22;38907;45.562;8.856;2023-07-13T13:12:49;27.10;99.90
51021;DHT22;38907;45.562;8.856;2023-07-13T13:17:54;27.20;99.90
51021;DHT22;38907;45.562;8.856;2023-07-13T13:22:56;27.40;99.90
51021;DHT22;38907;45.562;8.856;2023-07-13T13:27:59;27.60;99.90
51021;DHT22;38907;45.562;8.856;2023-07-13T13:33:04;27.70;99.90
51021;DHT22;38907;45.562;8.856;2023-07-13T13:38:11;27.90;99.90
51021;DHT22;38907;45.562;8.856;2023-07-13T13:43:16;27.90;99.90
51021;DHT22;38907;45.562;8.856;2023-07-13T13:48:25;27.90;99.90
51021;DHT22;38907;45.562;8.856;2023-07-13T13:53:30;28.00;99.90
51021;DHT22;38907;45.562;8.856;2023-07-13T13:58:33;27.90;99.90
51021;DHT22;38907;45.562;8.856;2023-07-13T14:03:37;28.00;99.90
51021;DHT22;38907;45.562;8.856;2023-07-13T14:08:39;28.10;99.90
51021;DHT22;38907;45.562;8.856;2023-07-13T14:13:43;28.10;99.90
51021;DHT22;38907;45.562;8.856;2023-07-13T14:18:49;28.20;99.90
51021;DHT22;38907;45.562;8.856;2023-07-13T14:23:51;28.40;99.90
51021;DHT22;38907;45.562;8.856;2023-07-13T14:28:54;28.40;99.90
51021;DHT22;38907;45.562;8.856;2023-07-13T14:33:58;28.40;99.90
51021;DHT22;38907;45.562;8.856;2023-07-13T14:39:05;28.50;99.90
51021;DHT22;38907;45.562;8.856;2023-07-13T14:44:13;28.40;99.90
51021;DHT22;38907;45.562;8.856;2023-07-13T14:49:28;28.60;99.90
51021;DHT22;38907;45.562;8.856;2023-07-13T14:54:31;28.70;99.90
51021;DHT22;38907;45.562;8.856;2023-07-13T14:59:33;28.80;99.90
51021;DHT22;38907;45.562;8.856;2023-07-13T15:04:36;29.00;99.90
51021;DHT22;38907;45.562;8.856;2023-07-13T15:09:38;29.00;99.90
51021;DHT22;38907;45.562;8.856;2023-07-13T15:14:40;29.00;99.90
51021;DHT22;38907;45.562;8.856;2023-07-13T15:19:43;29.10;99.90
51021;DHT22;38907;45.562;8.856;2023-07-13T15:24:45;29.20;99.90
51021;DHT22;38907;45.562;8.856;2023-07-13T15:29:47;29.30;99.90
51021;DHT22;38907;45.562;8.856;2023-07-13T15:34:51;29.70;99.90
51021;DHT22;38907;45.562;8.856;2023-07-13T15:39:53;29.80;99.90
51021;DHT22;38907;45.562;8.856;2023-07-13T15:44:54;29.90;99.90
51021;DHT22;38907;45.562;8.856;2023-07-13T15:50:00;29.90;99.90
51021;DHT22;38907;45.562;8.856;2023-07-13T15:55:02;30.00;99.90
51021;DHT22;38907;45.562;8.856;2023-07-13T16:00:14;30.10;99.90
51021;DHT22;38907;45.562;8.856;2023-07-13T16:05:21;30.20;99.90
51021;DHT22;38907;45.562;8.856;2023-07-13T16:10:30;30.40;99.90
51021;DHT22;38907;45.562;8.856;2023-07-13T16:15:32;30.50;99.90
51021;DHT22;38907;45.562;8.856;2023-07-13T16:20:35;30.50;99.90
51021;DHT22;38907;45.562;8.856;2023-07-13T16:25:37;30.70;99.90
51021;DHT22;38907;45.562;8.856;2023-07-13T16:30:40;30.50;99.90
51021;DHT22;38907;45.562;8.856;2023-07-13T16:35:43;30.70;99.90
51021;DHT22;38907;45.562;8.856;2023-07-13T16:40:47;30.70;99.90
51021;DHT22;38907;45.562;8.856;2023-07-13T16:45:49;30.50;99.90
51021;DHT22;38907;45.562;8.856;2023-07-13T16:50:54;30.40;99.90
51021;DHT22;38907;45.562;8.856;2023-07-13T16:55:57;30.30;99.90
51021;DHT22;38907;45.562;8.856;2023-07-13T17:01:01;30.10;99.90
51021;DHT22;38907;45.562;8.856;2023-07-13T17:06:20;29.90;99.90
51021;DHT22;38907;45.562;8.856;2023-07-13T17:11:24;29.70;99.90
51021;DHT22;38907;45.562;8.856;2023-07-13T17:16:26;29.50;99.90
51021;DHT22;38907;45.562;8.856;2023-07-13T17:21:30;29.30;99.90
51021;DHT22;38907;45.562;8.856;2023-07-13T17:26:32;29.30;99.90
51021;DHT22;38907;45.562;8.856;2023-07-13T17:31:33;29.20;99.90
51021;DHT22;38907;45.562;8.856;2023-07-13T17:36:37;29.10;99.90
51021;DHT22;38907;45.562;8.856;2023-07-13T17:41:39;29.00;99.90
51021;DHT22;38907;45.562;8.856;2023-07-13T17:46:44;29.00;99.90
51021;DHT22;38907;45.562;8.856;2023-07-13T17:51:49;28.90;99.90
51021;DHT22;38907;45.562;8.856;2023-07-13T17:56:51;28.80;99.90
51021;DHT22;38907;45.562;8.856;2023-07-13T18:01:53;28.70;99.90
51021;DHT22;38907;45.562;8.856;2023-07-13T18:06:57;28.60;99.90
51021;DHT22;38907;45.562;8.856;2023-07-13T18:12:09;28.50;99.90
51021;DHT22;38907;45.562;8.856;2023-07-13T18:17:13;28.50;99.90
51021;DHT22;38907;45.562;8.856;2023-07-13T18:22:17;28.40;99.90
51021;DHT22;38907;45.562;8.856;2023-07-13T18:27:19;28.40;99.90
51021;DHT22;38907;45.562;8.856;2023-07-13T18:32:21;28.30;99.90
51021;DHT22;38907;45.562;8.856;2023-07-13T18:37:24;28.20;99.90
51021;DHT22;38907;45.562;8.856;2023-07-13T18:42:26;28.20;99.90
51021;DHT22;38907;45.562;8.856;2023-07-13T18:47:28;28.00;99.90
51021;DHT22;38907;45.562;8.856;2023-07-13T18:52:36;27.90;99.90
51021;DHT22;38907;45.562;8.856;2023-07-13T18:57:38;27.80;99.90
51021;DHT22;38907;45.562;8.856;2023-07-13T19:02:40;27.80;99.90
51021;DHT22;38907;45.562;8.856;2023-07-13T19:07:45;27.70;99.90
51021;DHT22;38907;45.562;8.856;2023-07-13T19:12:50;27.50;99.90
51021;DHT22;38907;45.562;8.856;2023-07-13T19:17:58;27.40;99.90
51021;DHT22;38907;45.562;8.856;2023-07-13T19:23:19;27.40;99.90
51021;DHT22;38907;45.562;8.856;2023-07-13T19:28:30;27.30;99.90
51021;DHT22;38907;45.562;8.856;2023-07-13T19:33:35;27.10;99.90
51021;DHT22;38907;45.562;8.856;2023-07-13T19:38:40;26.80;99.90
51021;DHT22;38907;45.562;8.856;2023-07-13T19:43:43;26.90;99.90
51021;DHT22;38907;45.562;8.856;2023-07-13T19:48:46;26.60;99.90
51021;DHT22;38907;45.562;8.856;2023-07-13T19:53:50;26.60;99.90
51021;DHT22;38907;45.562;8.856;2023-07-13T19:58:53;26.60;99.90
51021;DHT22;38907;45.562;8.856;2023-07-13T20:03:55;26.80;99.90
51021;DHT22;38907;45.562;8.856;2023-07-13T20:09:00;26.80;99.90
51021;DHT22;38907;45.562;8.856;2023-07-13T20:14:15;26.50;99.90
51021;DHT22;38907;45.562;8.856;2023-07-13T20:19:17;26.40;99.90
51021;DHT22;38907;45.562;8.856;2023-07-13T20:24:21;26.40;99.90
51021;DHT22;38907;45.562;8.856;2023-07-13T20:29:24;26.40;99.90
51021;DHT22;38907;45.562;8.856;2023-07-13T20:34:26;26.30;99.90
51021;DHT22;38907;45.562;8.856;2023-07-13T20:39:31;26.20;99.90
51021;DHT22;38907;45.562;8.856;2023-07-13T20:44:34;26.20;99.90
51021;DHT22;38907;45.562;8.856;2023-07-13T20:49:36;26.20;99.90
51021;DHT22;38907;45.562;8.856;2023-07-13T20:54:39;26.20;99.90
51021;DHT22;38907;45.562;8.856;2023-07-13T20:59:45;26.20;99.90
51021;DHT22;38907;45.562;8.856;2023-07-13T21:04:55;26.10;99.90
51021;DHT22;38907;45.562;8.856;2023-07-13T21:10:11;26.00;99.90
51021;DHT22;38907;45.562;8.856;2023-07-13T21:15:19;25.90;99.90
51021;DHT22;38907;45.562;8.856;2023-07-13T21:20:29;25.80;99.90
51021;DHT22;38907;45.562;8.856;2023-07-13T21:25:37;25.70;99.90
51021;DHT22;38907;45.562;8.856;2023-07-13T21:30:45;25.60;99.90
51021;DHT22;38907;45.562;8.856;2023-07-13T21:35:53;25.60;99.90
51021;DHT22;38907;45.562;8.856;2023-07-13T21:41:03;25.60;99.90
51021;DHT22;38907;45.562;8.856;2023-07-13T21:46:13;25.50;99.90
51021;DHT22;38907;45.562;8.856;2023-07-13T21:51:20;25.50;99.90
51021;DHT22;38907;45.562;8.856;2023-07-13T21:56:28;25.50;99.90
51021;DHT22;38907;45.562;8.856;2023-07-13T22:01:34;25.40;99.90
51021;DHT22;38907;45.562;8.856;2023-07-13T22:06:40;25.40;99.90
51021;DHT22;38907;45.562;8.856;2023-07-13T22:11:46;25.30;99.90
51021;DHT22;38907;45.562;8.856;2023-07-13T22:16:50;25.30;99.90
51021;DHT22;38907;45.562;8.856;2023-07-13T22:21:56;25.20;99.90
51021;DHT22;38907;45.562;8.856;2023-07-13T22:27:08;25.10;99.90
51021;DHT22;38907;45.562;8.856;2023-07-13T22:32:14;25.00;99.90
51021;DHT22;38907;45.562;8.856;2023-07-13T22:37:22;25.00;99.90
51021;DHT22;38907;45.562;8.856;2023-07-13T22:42:30;24.80;99.90
51021;DHT22;38907;45.562;8.856;2023-07-13T22:47:37;24.60;99.90
51021;DHT22;38907;45.562;8.856;2023-07-13T22:52:44;24.70;99.90
51021;DHT22;38907;45.562;8.856;2023-07-13T22:57:55;24.60;99.90
51021;DHT22;38907;45.562;8.856;2023-07-13T23:03:01;24.60;99.90
51021;DHT22;38907;45.562;8.856;2023-07-13T23:08:12;24.60;99.90
51021;DHT22;38907;45.562;8.856;2023-07-13T23:13:22;24.50;99.90
51021;DHT22;38907;45.562;8.856;2023-07-13T23:18:28;24.50;99.90
51021;DHT22;38907;45.562;8.856;2023-07-13T23:23:37;24.60;99.90
51021;DHT22;38907;45.562;8.856;2023-07-13T23:28:47;24.60;99.90
51021;DHT22;38907;45.562;8.856;2023-07-13T23:33:55;24.50;99.90
51021;DHT22;38907;45.562;8.856;2023-07-13T23:39:02;24.40;99.90
51021;DHT22;38907;45.562;8.856;2023-07-13T23:44:08;24.50;99.90
51021;DHT22;38907;45.562;8.856;2023-07-13T23:49:21;24.20;99.90
51021;DHT22;38907;45.562;8.856;2023-07-13T23:54:26;24.10;99.90
51021;DHT22;38907;45.562;8.856;2023-07-13T23:59:36;24.00;99.90
